DAAG/ALG METAR and TAF weather

Enter ICAO airport designator
Station Type Date Time Source
DAAG METAR 2019/08/19 22:30 UTC NOAA

DAAG 192230Z 22001KT CAVOK 24/22 Q1014


Station Type Date Time Source
DAAG Decoded METAR 2019/08/19 22:30 UTC NOAA

Dar-El-Beida, Algeria (DAAG) 36-43N 003-15E 25M
Aug 19, 2019 - 06:30 PM EDT / 2019.08.19 2230 UTC
Wind: from the SW (220 degrees) at 1 MPH (1 KT):0
Visibility: greater than 7 mile(s):0
Temperature: 75 F (24 C)
Dew Point: 71 F (22 C)
Relative Humidity: 88%
Pressure (altimeter): 29.94 in. Hg (1014 hPa)
ob: DAAG 192230Z 22001KT CAVOK 24/22 Q1014
cycle: 22

Station Type Date Time Source
DAAG TAF 2019/08/19 18:33 UTC NOAA

TAF TAF DAAG 191700Z 1918/2018 04008KT CAVOK
BECMG 1919/1922 VRB02KT PROB40
TEMPO 1922/2006 5000 BR BKN015

Example: see airport list